Time;durP1;ratioP1;P1;durP2;ratioP2;P2;SDS_P1;SDS_P2;PMS_P1;PMS_P2;Temp;Humidity;BMP_temperature;BMP_pressure;BME280_temperature;BME280_humidity;BME280_pressure;Samples;Min_cycle;Max_cycle;Signal;HPM_P1;HPM_P2
2024/04/21 00:01:03;;;;;;;0.10;0.10;;;;;;;8.21;59.71;102478.84;5423782;26;19995;-78
2024/04/21 00:03:29;;;;;;;0.10;0.10;;;;;;;8.23;59.83;102487.69;5412475;26;20069;-77
2024/04/21 00:05:56;;;;;;;0.10;0.10;;;;;;;8.11;60.64;102493.63;5412544;26;20015;-77
2024/04/21 00:08:22;;;;;;;0.10;0.10;;;;;;;8.09;60.54;102503.31;5417185;26;20010;-77
2024/04/21 00:10:48;;;;;;;0.10;0.10;;;;;;;8.16;59.99;102499.00;5416486;26;20000;-78
2024/04/21 00:13:14;;;;;;;0.10;0.10;;;;;;;8.17;59.54;102492.88;5416276;26;20003;-78
2024/04/21 00:15:40;;;;;;;0.00;0.00;;;;;;;8.18;59.52;102486.72;5416180;26;20388;-78
2024/04/21 00:18:07;;;;;;;0.10;0.10;;;;;;;8.19;59.42;102477.94;5420987;26;19999;-80
2024/04/21 00:20:33;;;;;;;0.10;0.10;;;;;;;8.23;59.05;102479.75;5423913;26;20011;-80
2024/04/21 00:22:59;;;;;;;0.10;0.10;;;;;;;8.20;58.47;102495.53;5421521;26;20014;-81
2024/04/21 00:25:26;;;;;;;0.10;0.10;;;;;;;8.15;57.93;102487.56;5415947;26;20014;-78
2024/04/21 00:27:52;;;;;;;0.43;0.43;;;;;;;8.22;58.45;102499.09;5421533;26;20000;-80
2024/04/21 00:30:18;;;;;;;0.10;0.10;;;;;;;8.10;58.88;102500.69;5419789;26;20000;-78
2024/04/21 00:32:44;;;;;;;0.10;0.10;;;;;;;7.91;59.76;102488.94;5420678;26;20027;-79
2024/04/21 00:35:10;;;;;;;0.10;0.10;;;;;;;7.65;60.22;102470.00;5418936;26;20339;-79
2024/04/21 00:37:37;;;;;;;0.10;0.10;;;;;;;7.54;60.36;102461.88;5420081;26;20007;-79
2024/04/21 00:40:03;;;;;;;0.10;0.10;;;;;;;7.35;60.99;102468.56;5416934;26;20014;-79
2024/04/21 00:42:29;;;;;;;0.10;0.10;;;;;;;7.16;61.74;102459.38;5420295;26;19995;-80
2024/04/21 00:44:55;;;;;;;0.10;0.10;;;;;;;7.15;61.87;102467.25;5419351;26;20018;-80
2024/04/21 00:47:22;;;;;;;0.10;0.10;;;;;;;7.05;63.02;102471.44;5406783;26;20008;-77
2024/04/21 00:49:48;;;;;;;0.10;0.10;;;;;;;6.89;63.77;102496.56;5417663;26;20477;-78
2024/04/21 00:52:14;;;;;;;0.10;0.10;;;;;;;6.79;64.54;102496.38;5419416;26;20004;-78
2024/04/21 00:54:41;;;;;;;0.10;0.10;;;;;;;6.80;64.65;102477.09;5419787;26;20450;-79
2024/04/21 00:57:08;;;;;;;0.10;0.10;;;;;;;6.73;64.40;102458.47;5421220;26;20018;-79
2024/04/21 00:59:34;;;;;;;0.17;0.17;;;;;;;6.75;64.67;102440.94;5419398;26;19999;-79
2024/04/21 01:02:00;;;;;;;0.10;0.10;;;;;;;6.72;64.29;102436.50;5411905;26;20020;-77
2024/04/21 01:04:29;;;;;;;0.20;0.20;;;;;;;6.67;64.07;102427.63;5437013;26;20041;-75
2024/04/21 01:06:55;;;;;;;0.10;0.10;;;;;;;6.64;63.72;102424.91;5418201;26;20080;-78
2024/04/21 01:09:21;;;;;;;0.10;0.10;;;;;;;6.61;64.05;102422.22;5414586;26;20007;-79
2024/04/21 01:11:48;;;;;;;0.10;0.10;;;;;;;6.55;64.29;102422.97;5409253;26;20028;-79
2024/04/21 01:14:15;;;;;;;0.10;0.10;;;;;;;6.47;64.03;102419.28;5416794;26;20019;-79
2024/04/21 01:16:41;;;;;;;0.15;0.15;;;;;;;6.42;64.28;102419.19;5412676;26;20004;-78
2024/04/21 01:19:07;;;;;;;0.10;0.10;;;;;;;6.39;63.96;102418.22;5418209;26;20019;-78
2024/04/21 01:21:33;;;;;;;0.10;0.10;;;;;;;6.35;63.71;102408.47;5420207;26;20004;-78
2024/04/21 01:24:00;;;;;;;0.10;0.10;;;;;;;6.30;64.41;102405.72;5420590;26;20545;-79
2024/04/21 01:26:26;;;;;;;0.10;0.10;;;;;;;6.24;64.71;102416.13;5422843;26;20018;-78
2024/04/21 01:28:52;;;;;;;0.10;0.10;;;;;;;6.24;64.10;102416.13;5419562;26;19995;-78
2024/04/21 01:31:18;;;;;;;0.10;0.10;;;;;;;6.18;65.02;102419.50;5419391;26;19999;-78
2024/04/21 01:33:44;;;;;;;0.10;0.10;;;;;;;6.17;65.18;102416.81;5416569;26;20011;-78
2024/04/21 01:36:11;;;;;;;0.10;0.10;;;;;;;6.17;65.14;102408.94;5416221;26;20007;-76
2024/04/21 01:38:37;;;;;;;0.10;0.10;;;;;;;6.16;65.62;102413.31;5421283;26;19995;-77
2024/04/21 01:41:03;;;;;;;0.10;0.10;;;;;;;6.22;65.60;102408.19;5418696;26;20326;-78
2024/04/21 01:43:30;;;;;;;0.10;0.10;;;;;;;6.20;65.25;102403.75;5414173;26;20011;-78
2024/04/21 01:45:56;;;;;;;0.20;0.20;;;;;;;6.21;65.41;102392.38;5414734;26;19999;-77
2024/04/21 01:48:22;;;;;;;0.15;0.15;;;;;;;6.14;65.02;102389.59;5418212;26;20018;-78
2024/04/21 01:50:48;;;;;;;0.10;0.10;;;;;;;6.15;65.08;102387.84;5424024;26;20004;-78
2024/04/21 01:53:15;;;;;;;0.10;0.10;;;;;;;6.21;65.09;102373.94;5419834;26;20030;-77
2024/04/21 01:55:41;;;;;;;0.10;0.10;;;;;;;6.19;65.52;102370.38;5418915;26;20004;-76
2024/04/21 01:58:07;;;;;;;0.10;0.10;;;;;;;6.20;65.48;102373.03;5414364;26;20010;-76
2024/04/21 02:00:35;;;;;;;0.10;0.10;;;;;;;6.22;65.44;102368.72;5411302;26;20366;-76
2024/04/21 02:03:01;;;;;;;0.10;0.10;;;;;;;6.22;65.53;102367.81;5415727;26;20015;-76
2024/04/21 02:05:28;;;;;;;0.32;0.32;;;;;;;6.20;65.61;102372.16;5416797;26;19999;-77
2024/04/21 02:07:54;;;;;;;0.10;0.10;;;;;;;6.25;65.46;102365.25;5417302;26;20015;-77
2024/04/21 02:10:21;;;;;;;0.10;0.10;;;;;;;6.25;65.17;102354.72;5426119;26;20012;-76
2024/04/21 02:12:47;;;;;;;0.10;0.10;;;;;;;6.27;65.45;102353.03;5439626;26;20016;-75
2024/04/21 02:15:13;;;;;;;0.20;0.20;;;;;;;6.24;66.19;102348.59;5425375;26;19999;-78
2024/04/21 02:17:39;;;;;;;0.10;0.10;;;;;;;6.31;65.45;102354.88;5414095;26;20006;-77
2024/04/21 02:20:06;;;;;;;0.10;0.10;;;;;;;6.24;65.88;102358.22;5413466;26;20003;-77
2024/04/21 02:22:33;;;;;;;0.10;0.10;;;;;;;6.25;66.12;102357.38;5412420;26;20007;-78
2024/04/21 02:24:59;;;;;;;0.10;0.10;;;;;;;6.18;66.03;102348.44;5413736;26;20000;-77
2024/04/21 02:27:25;;;;;;;0.10;0.10;;;;;;;6.16;66.85;102331.72;5419120;26;20334;-78
2024/04/21 02:29:51;;;;;;;0.20;0.20;;;;;;;6.25;66.93;102336.31;5421502;26;20000;-77
2024/04/21 02:32:17;;;;;;;0.10;0.10;;;;;;;6.30;66.46;102319.75;5421737;26;19999;-76
2024/04/21 02:34:45;;;;;;;0.10;0.10;;;;;;;6.27;66.62;102313.56;5415637;26;20003;-76
2024/04/21 02:37:11;;;;;;;0.10;0.10;;;;;;;6.32;66.54;102314.53;5415299;26;20000;-78
2024/04/21 02:39:37;;;;;;;0.20;0.20;;;;;;;6.33;66.66;102311.03;5422522;26;20039;-79
2024/04/21 02:42:04;;;;;;;0.20;0.20;;;;;;;6.30;66.66;102300.44;5422677;26;20007;-77
2024/04/21 02:44:30;;;;;;;0.28;0.28;;;;;;;6.27;66.68;102295.13;5420639;26;20011;-75
2024/04/21 02:46:56;;;;;;;0.20;0.20;;;;;;;6.27;66.89;102297.75;5421234;26;20014;-77
2024/04/21 02:49:22;;;;;;;0.15;0.15;;;;;;;6.18;67.01;102289.66;5420364;26;19995;-77
2024/04/21 02:51:49;;;;;;;0.10;0.10;;;;;;;6.20;66.77;102287.94;5413531;26;20084;-77
2024/04/21 02:54:15;;;;;;;0.13;0.13;;;;;;;6.19;66.93;102275.63;5415441;26;20461;-77
2024/04/21 02:56:41;;;;;;;0.10;0.10;;;;;;;6.22;67.04;102279.22;5415666;26;19996;-76
2024/04/21 02:59:07;;;;;;;0.13;0.13;;;;;;;6.20;67.36;102272.16;5421308;26;20010;-77
2024/04/21 03:01:33;;;;;;;0.15;0.15;;;;;;;6.28;67.33;102276.72;5415080;26;20334;-77
2024/04/21 03:04:00;;;;;;;0.10;0.10;;;;;;;6.37;67.10;102270.75;5418475;26;20003;-77
2024/04/21 03:06:26;;;;;;;0.10;0.10;;;;;;;6.38;67.31;102267.28;5415681;26;20274;-77
2024/04/21 03:08:52;;;;;;;0.10;0.10;;;;;;;6.50;67.04;102261.34;5420219;26;19991;-75
2024/04/21 03:11:18;;;;;;;0.20;0.20;;;;;;;6.54;67.49;102305.34;5420966;26;20059;-76
2024/04/21 03:13:48;;;;;;;0.10;0.10;;;;;;;6.45;68.23;102295.47;5421670;26;20438;-78
2024/04/21 03:16:14;;;;;;;0.10;0.10;;;;;;;6.38;69.22;102325.19;5421005;26;20000;-76
2024/04/21 03:18:41;;;;;;;0.13;0.13;;;;;;;6.48;69.41;102328.91;5428922;26;20011;-76
2024/04/21 03:21:07;;;;;;;0.10;0.10;;;;;;;6.44;69.19;102325.31;5440765;26;20010;-74
2024/04/21 03:23:33;;;;;;;0.10;0.10;;;;;;;6.31;69.00;102339.94;5415676;26;20010;-77
2024/04/21 03:25:59;;;;;;;0.10;0.10;;;;;;;6.24;68.58;102331.88;5421428;26;20006;-77
2024/04/21 03:28:26;;;;;;;0.10;0.10;;;;;;;6.20;68.98;102293.22;5412487;26;20000;-78
2024/04/21 03:30:56;;;;;;;2.08;1.42;;;;;;;6.24;69.02;102295.94;5424698;26;20012;-78
2024/04/21 03:33:22;;;;;;;0.10;0.10;;;;;;;6.12;68.89;102293.94;5416675;26;20003;-78
2024/04/21 03:36:02;;;;;;;0.10;0.10;;;;;;;6.16;68.95;102276.47;5424283;26;20000;-79
2024/04/21 03:38:29;;;;;;;0.20;0.20;;;;;;;6.13;68.72;102286.91;5419533;26;20057;-77
2024/04/21 03:40:56;;;;;;;0.10;0.10;;;;;;;6.06;68.63;102285.91;5421797;26;20085;-76
2024/04/21 03:43:22;;;;;;;0.10;0.10;;;;;;;6.03;68.41;102293.75;5420695;26;20098;-75
2024/04/21 03:45:48;;;;;;;0.20;0.20;;;;;;;5.95;68.59;102284.75;5419422;26;20014;-77
2024/04/21 03:48:14;;;;;;;0.10;0.10;;;;;;;5.98;68.53;102283.09;5419463;26;20018;-78
2024/04/21 03:50:41;;;;;;;0.10;0.10;;;;;;;5.90;68.30;102281.13;5419620;26;20007;-77
2024/04/21 03:53:11;;;;;;;0.10;0.10;;;;;;;5.94;68.81;102281.22;5417731;26;19999;-77
2024/04/21 03:55:38;;;;;;;0.25;0.25;;;;;;;5.89;69.08;102284.59;5418343;26;20014;-77
2024/04/21 03:58:04;;;;;;;0.10;0.10;;;;;;;5.90;69.29;102289.00;5418461;26;20000;-77
2024/04/21 04:00:32;;;;;;;0.20;0.20;;;;;;;5.94;69.06;102288.22;5419914;26;20462;-79
2024/04/21 04:02:59;;;;;;;2.00;1.38;;;;;;;5.92;69.16;102280.31;5414118;26;19995;-78
2024/04/21 04:05:25;;;;;;;0.10;0.10;;;;;;;6.00;68.94;102280.50;5420861;26;20010;-77
2024/04/21 04:07:51;;;;;;;0.20;0.20;;;;;;;6.01;68.75;102276.09;5426949;26;19996;-78
2024/04/21 04:10:18;;;;;;;0.10;0.10;;;;;;;6.09;68.83;102280.72;5419759;26;19999;-78
2024/04/21 04:12:44;;;;;;;0.10;0.10;;;;;;;6.13;68.44;102277.28;5420664;26;20003;-78
2024/04/21 04:15:11;;;;;;;0.10;0.10;;;;;;;6.18;68.76;102273.84;5416821;26;19991;-78
2024/04/21 04:17:38;;;;;;;0.10;0.10;;;;;;;6.19;68.74;102278.25;5423769;26;19991;-78
2024/04/21 04:20:07;;;;;;;0.10;0.10;;;;;;;6.24;68.45;102263.44;5424676;26;19999;-79
2024/04/21 04:22:33;;;;;;;1.27;1.27;;;;;;;6.19;68.72;102273.00;5412566;26;20538;-79
2024/04/21 04:24:59;;;;;;;0.10;0.10;;;;;;;6.22;68.55;102276.59;5422977;26;19999;-77
2024/04/21 04:27:25;;;;;;;0.10;0.10;;;;;;;6.21;68.49;102271.31;5432778;26;20019;-77
2024/04/21 04:29:52;;;;;;;0.10;0.10;;;;;;;6.18;68.70;102276.47;5437027;26;19988;-77
2024/04/21 04:32:18;;;;;;;0.10;0.10;;;;;;;6.23;68.51;102272.19;5424911;26;20073;-78
2024/04/21 04:34:44;;;;;;;0.10;0.10;;;;;;;6.23;68.44;102272.19;5418287;26;19996;-77
2024/04/21 04:37:10;;;;;;;0.10;0.10;;;;;;;6.17;68.58;102274.69;5417513;26;19999;-80
2024/04/21 04:39:37;;;;;;;0.10;0.10;;;;;;;6.15;68.46;102278.19;5419323;26;20519;-78
2024/04/21 04:42:03;;;;;;;0.10;0.10;;;;;;;6.11;68.54;102286.88;5419703;26;20035;-77
2024/04/21 04:44:30;;;;;;;0.10;0.10;;;;;;;6.14;68.54;102289.59;5420033;26;20159;-79
2024/04/21 04:46:56;;;;;;;0.10;0.10;;;;;;;6.16;68.74;102284.34;5422337;26;20072;-77
2024/04/21 04:49:22;;;;;;;0.10;0.10;;;;;;;6.19;68.60;102291.44;5422751;26;19991;-77
2024/04/21 04:51:49;;;;;;;0.10;0.10;;;;;;;6.20;68.60;102295.84;5421753;26;20000;-77
2024/04/21 04:54:15;;;;;;;0.10;0.10;;;;;;;6.22;68.47;102291.47;5421944;26;20000;-79
2024/04/21 04:56:41;;;;;;;0.10;0.10;;;;;;;6.13;69.11;102297.44;5423042;26;20003;-79
2024/04/21 04:59:07;;;;;;;0.15;0.15;;;;;;;6.21;68.79;102305.53;5423455;26;20326;-77
2024/04/21 05:01:34;;;;;;;0.10;0.10;;;;;;;6.19;69.01;102299.31;5424803;26;20005;-79
2024/04/21 05:04:00;;;;;;;0.10;0.10;;;;;;;6.20;68.79;102299.34;5422280;26;20006;-79
2024/04/21 05:06:26;;;;;;;0.10;0.10;;;;;;;6.21;68.75;102308.16;5421381;26;19995;-77
2024/04/21 05:08:52;;;;;;;0.10;0.10;;;;;;;6.22;68.97;102304.63;5422403;26;20073;-78
2024/04/21 05:11:19;;;;;;;0.10;0.10;;;;;;;6.25;68.95;102307.34;5423305;26;19999;-78
2024/04/21 05:13:45;;;;;;;0.20;0.20;;;;;;;6.26;68.41;102309.13;5424210;26;20010;-78
2024/04/21 05:16:11;;;;;;;0.10;0.10;;;;;;;6.24;68.04;102300.31;5421977;26;20020;-77
2024/04/21 05:18:37;;;;;;;0.10;0.10;;;;;;;6.18;68.21;102306.34;5422676;26;19999;-78
2024/04/21 05:21:03;;;;;;;0.20;0.20;;;;;;;6.23;68.13;102306.41;5423052;26;19992;-78
2024/04/21 05:23:31;;;;;;;0.20;0.20;;;;;;;6.30;67.75;102310.97;5421038;26;20446;-78
2024/04/21 05:25:57;;;;;;;0.10;0.10;;;;;;;6.29;67.93;102315.34;5421464;26;20003;-76
2024/04/21 05:28:23;;;;;;;0.10;0.10;;;;;;;6.31;67.61;102312.75;5422380;26;20028;-79
2024/04/21 05:30:49;;;;;;;0.15;0.15;;;;;;;6.38;67.61;102314.66;5422445;26;20458;-78
2024/04/21 05:33:16;;;;;;;0.17;0.17;;;;;;;6.42;67.59;102334.91;5422947;26;20072;-80
2024/04/21 05:35:42;;;;;;;0.98;0.40;;;;;;;6.46;67.69;102307.78;5431303;26;19995;-79
2024/04/21 05:38:08;;;;;;;0.17;0.17;;;;;;;6.42;67.56;102327.03;5437090;26;19987;-76
2024/04/21 05:40:34;;;;;;;0.10;0.10;;;;;;;6.54;67.53;102325.50;5422403;26;19999;-79
2024/04/21 05:43:01;;;;;;;0.20;0.20;;;;;;;6.50;67.84;102324.53;5418494;26;20011;-77
2024/04/21 05:45:27;;;;;;;0.10;0.10;;;;;;;6.65;67.44;102329.22;5418280;26;19991;-77
2024/04/21 05:47:54;;;;;;;0.10;0.10;;;;;;;6.79;67.37;102332.13;5418775;26;20064;-79
2024/04/21 05:50:21;;;;;;;0.10;0.10;;;;;;;6.82;67.28;102336.56;5420094;26;19996;-78
2024/04/21 05:52:47;;;;;;;0.10;0.10;;;;;;;6.90;67.25;102346.44;5419589;26;20023;-79
2024/04/21 05:55:13;;;;;;;0.10;0.10;;;;;;;7.00;67.40;102347.47;5418224;26;20010;-79
2024/04/21 05:57:40;;;;;;;0.10;0.10;;;;;;;7.04;67.23;102354.59;5421811;26;19996;-79
2024/04/21 06:00:06;;;;;;;0.10;0.10;;;;;;;7.15;67.18;102356.53;5421370;26;19999;-79
2024/04/21 06:02:33;;;;;;;0.10;0.10;;;;;;;7.23;67.84;102373.41;5416792;26;20008;-79
2024/04/21 06:04:59;;;;;;;0.10;0.10;;;;;;;7.37;67.68;102377.16;5420359;26;20390;-80
2024/04/21 06:07:26;;;;;;;0.10;0.10;;;;;;;7.42;67.21;102388.66;5421876;26;20027;-79
2024/04/21 06:09:53;;;;;;;0.10;0.10;;;;;;;7.51;67.19;102402.91;5422939;26;20004;-79
2024/04/21 06:12:19;;;;;;;0.10;0.10;;;;;;;7.59;67.21;102401.28;5422211;26;20000;-80
2024/04/21 06:14:45;;;;;;;0.10;0.10;;;;;;;7.55;66.84;102410.00;5421389;26;19995;-80
2024/04/21 06:17:11;;;;;;;0.10;0.10;;;;;;;7.54;66.81;102413.47;5422115;26;20007;-80
2024/04/21 06:19:37;;;;;;;0.10;0.10;;;;;;;7.54;66.40;102409.13;5422376;26;19996;-79
2024/04/21 06:22:04;;;;;;;0.10;0.10;;;;;;;7.51;66.25;102416.09;5421409;26;20000;-79
2024/04/21 06:24:30;;;;;;;0.10;0.10;;;;;;;7.53;66.33;102417.00;5421780;26;20073;-79
2024/04/21 06:26:56;;;;;;;0.10;0.10;;;;;;;7.52;66.37;102433.69;5421371;26;20008;-79
2024/04/21 06:29:22;;;;;;;0.20;0.20;;;;;;;7.50;65.74;102432.75;5422343;26;20073;-79
2024/04/21 06:31:48;;;;;;;0.00;0.00;;;;;;;7.49;65.85;102436.25;5422428;26;20080;-81
2024/04/21 06:34:15;;;;;;;0.20;0.20;;;;;;;7.43;66.00;102443.19;5419715;26;20082;-80
2024/04/21 06:36:41;;;;;;;0.10;0.10;;;;;;;7.47;65.81;102452.06;5423403;26;20010;-80
2024/04/21 06:39:07;;;;;;;0.10;0.10;;;;;;;7.57;66.25;102451.38;5424313;26;20028;-80
2024/04/21 06:41:33;;;;;;;0.10;0.10;;;;;;;7.59;66.23;102456.69;5424063;26;20011;-80
2024/04/21 06:43:59;;;;;;;0.10;0.10;;;;;;;7.59;66.11;102460.19;5429116;26;20007;-79
2024/04/21 06:46:25;;;;;;;0.00;0.00;;;;;;;7.55;66.24;102468.03;5438143;26;19999;-78
2024/04/21 06:48:52;;;;;;;0.10;0.10;;;;;;;7.61;65.77;102468.13;5425049;26;20053;-80
2024/04/21 06:51:18;;;;;;;0.10;0.10;;;;;;;7.60;65.85;102471.63;5421618;26;20004;-79
2024/04/21 06:53:45;;;;;;;0.10;0.10;;;;;;;7.54;65.69;102482.06;5413922;26;20006;-79
2024/04/21 06:56:12;;;;;;;0.00;0.00;;;;;;;7.63;65.85;102482.25;5410877;26;20443;-79
2024/04/21 06:58:38;;;;;;;0.10;0.10;;;;;;;7.68;65.96;102480.59;5421030;26;20004;-79
2024/04/21 07:01:05;;;;;;;0.10;0.10;;;;;;;7.69;65.81;102492.91;5418047;26;20008;-80
2024/04/21 07:03:31;;;;;;;0.10;0.10;;;;;;;7.62;65.60;102496.31;5420980;26;20007;-80
2024/04/21 07:05:57;;;;;;;0.10;0.10;;;;;;;7.59;65.47;102507.69;5415937;26;20003;-80
2024/04/21 07:08:23;;;;;;;0.10;0.10;;;;;;;7.56;65.23;102506.72;5418481;26;20094;-79
2024/04/21 07:10:49;;;;;;;0.00;0.00;;;;;;;7.71;65.69;102514.06;5420953;26;20000;-80
2024/04/21 07:13:16;;;;;;;0.45;0.45;;;;;;;7.66;65.98;102513.06;5420560;26;20053;-79
2024/04/21 07:15:42;;;;;;;0.10;0.10;;;;;;;7.82;65.85;102514.25;5420225;26;20090;-80
2024/04/21 07:18:08;;;;;;;0.10;0.10;;;;;;;7.83;65.88;102516.91;5414002;26;20011;-80
2024/04/21 07:20:34;;;;;;;0.10;0.10;;;;;;;7.82;65.55;102514.25;5418332;26;20012;-79
2024/04/21 07:23:00;;;;;;;0.10;0.10;;;;;;;7.86;65.19;102514.34;5418136;26;20481;-80
2024/04/21 07:25:27;;;;;;;0.10;0.10;;;;;;;7.89;64.97;102521.44;5420926;26;20049;-80
2024/04/21 07:27:53;;;;;;;0.10;0.10;;;;;;;7.90;65.25;102529.38;5411504;26;20304;-80
2024/04/21 07:30:19;;;;;;;0.10;0.10;;;;;;;7.86;65.52;102539.84;5417919;26;19996;-80
2024/04/21 07:32:48;;;;;;;0.35;0.35;;;;;;;7.93;65.69;102542.59;5417773;26;19996;-80
2024/04/21 07:35:15;;;;;;;0.10;0.10;;;;;;;7.99;65.51;102544.47;5419458;26;20097;-80
2024/04/21 07:37:42;;;;;;;0.10;0.10;;;;;;;8.06;65.60;102543.75;5419825;26;19999;-80
2024/04/21 07:40:08;;;;;;;0.10;0.10;;;;;;;8.14;65.76;102554.44;5420514;26;20086;-81
2024/04/21 07:42:34;;;;;;;0.10;0.10;;;;;;;8.27;65.62;102550.25;5417856;26;20003;-79
2024/04/21 07:45:00;;;;;;;7.00;2.28;;;;;;;8.37;65.60;102556.56;5416512;26;20032;-79
2024/04/21 07:47:27;;;;;;;0.38;0.38;;;;;;;8.53;65.03;102569.19;5422940;26;20000;-78
2024/04/21 07:49:53;;;;;;;0.52;0.52;;;;;;;8.62;64.52;102571.09;5414868;26;20053;-78
2024/04/21 07:52:20;;;;;;;0.10;0.10;;;;;;;8.68;64.20;102584.41;5441987;26;20009;-77
2024/04/21 07:54:46;;;;;;;0.10;0.10;;;;;;;8.79;63.87;102586.34;5434509;26;19996;-77
2024/04/21 07:57:14;;;;;;;0.10;0.10;;;;;;;8.92;64.45;102592.69;5424544;26;20008;-77
2024/04/21 07:59:41;;;;;;;0.45;0.45;;;;;;;9.06;64.59;102609.66;5425157;26;19995;-80
2024/04/21 08:02:07;;;;;;;0.20;0.20;;;;;;;9.05;63.21;102600.81;5423553;26;19995;-78
2024/04/21 08:04:33;;;;;;;0.00;0.00;;;;;;;9.03;62.03;102602.59;5423674;26;19996;-78
2024/04/21 08:06:59;;;;;;;0.10;0.10;;;;;;;8.96;61.97;102597.16;5425680;26;20063;-77
2024/04/21 08:09:26;;;;;;;0.10;0.10;;;;;;;9.03;62.54;102613.16;5422786;26;20007;-78
2024/04/21 08:11:52;;;;;;;0.10;0.10;;;;;;;9.05;61.91;102611.41;5424899;26;20019;-78
2024/04/21 08:14:18;;;;;;;0.10;0.10;;;;;;;9.16;61.35;102616.88;5423951;26;20019;-79
2024/04/21 08:16:44;;;;;;;0.10;0.10;;;;;;;9.41;62.31;102617.19;5424298;26;20010;-79
2024/04/21 08:19:10;;;;;;;0.10;0.10;;;;;;;9.67;63.08;102612.25;5417731;26;19999;-79
2024/04/21 08:21:37;;;;;;;0.10;0.10;;;;;;;9.87;62.76;102608.94;5424545;26;20045;-78
2024/04/21 08:24:03;;;;;;;0.10;0.10;;;;;;;10.02;61.78;102621.47;5423553;26;20007;-80
2024/04/21 08:26:30;;;;;;;0.10;0.10;;;;;;;10.07;60.93;102616.19;5422481;26;20050;-80
2024/04/21 08:28:56;;;;;;;0.15;0.15;;;;;;;10.07;58.50;102616.19;5419202;26;20019;-79
2024/04/21 08:31:22;;;;;;;0.10;0.10;;;;;;;10.12;60.69;102625.06;5416275;26;20003;-80
2024/04/21 08:33:48;;;;;;;0.10;0.10;;;;;;;10.13;60.06;102630.41;5420187;26;20004;-79
2024/04/21 08:36:14;;;;;;;0.10;0.10;;;;;;;10.15;59.86;102625.13;5423544;26;19996;-80
2024/04/21 08:38:41;;;;;;;0.30;0.30;;;;;;;10.14;58.22;102631.28;5425444;26;20003;-80
2024/04/21 08:41:10;;;;;;;0.90;0.90;;;;;;;10.19;59.19;102629.56;5425367;26;20022;-79
2024/04/21 08:43:38;;;;;;;0.30;0.30;;;;;;;10.16;57.72;102638.38;5408018;26;19999;-79
2024/04/21 08:46:05;;;;;;;0.10;0.10;;;;;;;10.21;58.50;102641.09;5423516;26;20007;-79
2024/04/21 08:48:32;;;;;;;0.10;0.10;;;;;;;10.13;58.21;102640.09;5418511;26;20078;-80
2024/04/21 08:50:58;;;;;;;0.10;0.10;;;;;;;10.05;58.79;102650.63;5421723;26;20015;-79
2024/04/21 08:53:25;;;;;;;0.10;0.10;;;;;;;10.02;58.63;102653.25;5423774;26;20043;-79
2024/04/21 08:55:53;;;;;;;0.10;0.10;;;;;;;9.96;57.89;102646.09;5423895;26;20004;-79
2024/04/21 08:58:19;;;;;;;0.10;0.10;;;;;;;10.09;58.74;102647.13;5434592;26;19995;-77
2024/04/21 09:00:46;;;;;;;0.10;0.10;;;;;;;10.24;58.45;102649.03;5436918;26;19995;-81
2024/04/21 09:03:14;;;;;;;0.10;0.10;;;;;;;10.49;59.36;102641.38;5432933;26;20010;-80
2024/04/21 09:05:41;;;;;;;0.00;0.00;;;;;;;10.65;58.00;102643.31;5424356;26;20010;-81
2024/04/21 09:08:08;;;;;;;0.10;0.10;;;;;;;10.73;56.87;102645.13;5424429;26;20010;-80
2024/04/21 09:10:35;;;;;;;0.10;0.10;;;;;;;10.77;55.56;102646.94;5424263;26;20015;-79
2024/04/21 09:13:02;;;;;;;0.10;0.10;;;;;;;10.88;55.82;102645.25;5424380;26;19995;-81
2024/04/21 09:15:30;;;;;;;0.10;0.10;;;;;;;10.98;55.15;102646.22;5424383;26;20003;-80
2024/04/21 09:17:56;;;;;;;0.10;0.10;;;;;;;11.07;55.67;102656.88;5423692;26;20011;-80
2024/04/21 09:20:23;;;;;;;0.13;0.13;;;;;;;11.19;55.00;102655.19;5415570;26;20010;-79
2024/04/21 09:22:49;;;;;;;0.13;0.13;;;;;;;11.31;54.18;102656.16;5421918;26;20035;-80
2024/04/21 09:25:17;;;;;;;0.10;0.10;;;;;;;11.35;53.83;102650.88;5419459;26;20011;-81
2024/04/21 09:27:47;;;;;;;0.45;0.45;;;;;;;11.46;53.03;102665.09;5420338;26;20014;-80
2024/04/21 09:30:13;;;;;;;0.10;0.10;;;;;;;11.48;53.27;102650.06;5419603;26;19999;-81
2024/04/21 09:32:40;;;;;;;0.10;0.10;;;;;;;11.51;52.57;102649.19;5419289;26;19996;-81
2024/04/21 09:35:06;;;;;;;0.10;0.10;;;;;;;11.58;51.92;102664.28;5416177;26;20018;-81
2024/04/21 09:37:32;;;;;;;0.10;0.10;;;;;;;11.69;52.53;102659.91;5419797;26;20112;-80
2024/04/21 09:39:59;;;;;;;0.10;0.10;;;;;;;11.74;51.63;102658.16;5419978;26;20010;-81
2024/04/21 09:42:31;;;;;;;0.10;0.10;;;;;;;11.96;51.53;102658.25;5420163;26;20006;-81
2024/04/21 09:44:57;;;;;;;0.15;0.15;;;;;;;12.13;52.57;102666.28;5416091;26;19995;-81
2024/04/21 09:47:24;;;;;;;0.10;0.10;;;;;;;12.29;52.33;102653.91;5420039;26;20000;-81
2024/04/21 09:49:54;;;;;;;0.10;0.10;;;;;;;12.38;50.37;102669.00;5419891;26;20000;-80
2024/04/21 09:52:23;;;;;;;0.10;0.10;;;;;;;12.48;51.71;102657.50;5419034;26;20000;-81
2024/04/21 09:54:49;;;;;;;0.10;0.10;;;;;;;12.56;50.80;102665.47;5416104;26;20004;-80
2024/04/21 09:57:18;;;;;;;0.10;0.10;;;;;;;12.58;50.91;102669.03;5419393;26;20012;-80
2024/04/21 09:59:47;;;;;;;0.10;0.10;;;;;;;12.37;49.25;102672.53;5413585;26;20003;-78
2024/04/21 10:07:34;;;;;;;0.08;0.08;;;;;;;12.37;51.46;102677.84;5494520;25;20298;-80
2024/04/21 10:10:06;;;;;;;0.10;0.10;;;;;;;12.48;50.90;102680.53;5472241;26;20071;-81
2024/04/21 10:12:33;;;;;;;0.10;0.10;;;;;;;12.56;49.91;102684.97;5471204;26;20013;-80
2024/04/21 10:14:59;;;;;;;0.10;0.10;;;;;;;12.69;50.49;102685.88;5462683;26;20045;-81
2024/04/21 10:17:25;;;;;;;0.10;0.10;;;;;;;12.83;50.54;102677.88;5429709;26;20022;-83
2024/04/21 10:20:01;;;;;;;0.10;0.10;;;;;;;13.06;50.36;102691.19;5432345;26;20068;-81
2024/04/21 10:22:28;;;;;;;0.10;0.10;;;;;;;13.18;48.39;102679.63;5434455;26;19995;-82
2024/04/21 10:24:54;;;;;;;0.10;0.10;;;;;;;13.37;50.16;102690.25;5434080;26;20010;-81
2024/04/21 10:27:23;;;;;;;0.10;0.10;;;;;;;13.48;49.56;102693.81;5441206;26;20006;-81
2024/04/21 10:29:50;;;;;;;0.10;0.10;;;;;;;13.58;49.20;102684.94;5439417;26;20335;-81
2024/04/21 10:32:24;;;;;;;0.10;0.10;;;;;;;13.84;48.24;102697.25;5440110;26;20032;-81
2024/04/21 10:34:50;;;;;;;0.10;0.10;;;;;;;13.97;47.93;102686.53;5438120;26;20000;-82
2024/04/21 10:37:25;;;;;;;0.10;0.10;;;;;;;14.24;48.17;102697.06;5438066;26;20010;-82
2024/04/21 10:39:58;;;;;;;0.30;0.30;;;;;;;14.38;48.20;102686.31;5438041;26;20547;-82
2024/04/21 10:42:24;;;;;;;0.10;0.10;;;;;;;14.48;47.13;102697.81;5421106;26;20007;-82
2024/04/21 10:44:50;;;;;;;0.10;0.10;;;;;;;14.76;47.53;102694.97;5426218;26;20071;-82
2024/04/21 10:47:17;;;;;;;0.10;0.10;;;;;;;14.79;47.91;102694.06;5433340;26;20008;-82
2024/04/21 10:49:43;;;;;;;0.00;0.00;;;;;;;14.65;45.25;102691.50;5425850;26;20014;-82
2024/04/21 10:52:09;;;;;;;0.10;0.10;;;;;;;14.47;47.45;102697.84;5435802;26;19999;-83
2024/04/21 10:54:36;;;;;;;0.10;0.10;;;;;;;14.26;47.02;102701.50;5436260;26;20024;-82
2024/04/21 10:57:04;;;;;;;0.17;0.17;;;;;;;14.10;45.86;102698.91;5426945;26;19999;-82
2024/04/21 10:59:32;;;;;;;0.10;0.10;;;;;;;13.95;46.75;102699.00;5435998;26;19999;-82
2024/04/21 11:01:58;;;;;;;0.10;0.10;;;;;;;13.96;47.27;102703.44;5422279;26;20050;-82
2024/04/21 11:04:26;;;;;;;0.10;0.10;;;;;;;14.13;48.66;102704.25;5436361;26;20000;-82
2024/04/21 11:06:53;;;;;;;0.10;0.10;;;;;;;14.35;49.06;102693.44;5436003;26;20003;-82
2024/04/21 11:09:21;;;;;;;0.10;0.10;;;;;;;14.56;46.17;102695.09;5430666;26;20007;-82
2024/04/21 11:11:47;;;;;;;0.10;0.10;;;;;;;14.84;46.48;102677.13;5429335;26;20040;-81
2024/04/21 11:14:14;;;;;;;0.10;0.10;;;;;;;15.01;46.90;102694.75;5440579;26;19991;-81
2024/04/21 11:16:40;;;;;;;0.10;0.10;;;;;;;15.08;47.24;102699.16;5456634;26;20020;-82
2024/04/21 11:19:08;;;;;;;0.10;0.10;;;;;;;15.03;42.45;102691.19;5439244;26;20003;-82
2024/04/21 11:21:35;;;;;;;0.10;0.10;;;;;;;15.27;44.15;102690.97;5404638;26;20003;-82
2024/04/21 11:24:02;;;;;;;0.10;0.10;;;;;;;15.34;45.01;102698.91;5417444;26;20029;-82
2024/04/21 11:26:28;;;;;;;0.10;0.10;;;;;;;15.11;43.61;102693.78;5403544;26;20015;-82
2024/04/21 11:28:57;;;;;;;0.10;0.10;;;;;;;15.11;45.17;102691.09;5412004;26;20000;-82
2024/04/21 11:31:24;;;;;;;0.10;0.10;;;;;;;15.19;45.65;102691.94;5391856;26;20011;-82
2024/04/21 11:33:51;;;;;;;0.10;0.10;;;;;;;15.30;45.40;102697.16;5416366;26;20007;-81